Pluck, Texas
Current Conditions -  °F | °C
As of 5:53 AM on Friday 28 Nov 2014 (Local Time) from KLFK Reporting Station
Clear Clear  
Wind Chill: 35°   Ceiling: Unl
Heat Index: 39°   Visibility: 10mi
Dew Point: 32°   Wind: 6mph
Humidity: 76%   Direction: 130°SE
Pressure: 30.37"   Gusts: NA
Location:  31.024°N, 94.7686°W
Report Text: KLFK 281153Z AUTO 13005KT 10SM CLR 04/00 A3037 RMK AO2 SLP282 7//// T00390000 10056 20039 56008 $
Loading
Personal Weather Stations






























Interactive Weather Map New forecast layout! Learn more

10-Day Weather Forecast

Advertisements
Track Severe Weather on mobile